createdAt,value
2023-12-20T00:01:45.685Z,7.00
2023-12-20T00:04:36.106Z,7.50
2023-12-20T00:10:48.069Z,6.80
2023-12-20T00:13:16.290Z,6.40
2023-12-20T00:15:47.431Z,5.50
2023-12-20T00:18:15.671Z,4.90
2023-12-20T00:20:46.419Z,5.90
2023-12-20T00:23:14.460Z,5.60
2023-12-20T00:25:42.351Z,4.60
2023-12-20T00:28:11.504Z,4.70
2023-12-20T00:30:39.861Z,4.90
2023-12-20T00:33:08.043Z,5.60
2023-12-20T00:35:36.180Z,4.50
2023-12-20T00:38:06.309Z,4.50
2023-12-20T00:40:34.730Z,5.10
2023-12-20T00:43:02.864Z,4.70
2023-12-20T00:45:40.112Z,4.40
2023-12-20T00:48:08.517Z,4.10
2023-12-20T00:50:36.725Z,4.10
2023-12-20T00:53:07.031Z,3.50
2023-12-20T00:55:35.091Z,3.90
2023-12-20T00:58:04.107Z,3.90
2023-12-20T01:00:32.083Z,4.20
2023-12-20T01:03:00.218Z,3.40
2023-12-20T01:05:28.542Z,3.50
2023-12-20T01:07:56.646Z,3.20
2023-12-20T01:10:24.855Z,3.80
2023-12-20T01:12:55.313Z,3.80
2023-12-20T01:15:23.379Z,2.90
2023-12-20T01:17:51.478Z,3.00
2023-12-20T01:20:21.441Z,3.90
2023-12-20T01:22:49.709Z,3.10
2023-12-20T01:25:17.782Z,3.20
2023-12-20T01:27:54.053Z,3.20
2023-12-20T01:30:22.066Z,2.90
2023-12-20T01:32:51.902Z,2.90
2023-12-20T01:35:20.074Z,2.90
2023-12-20T01:37:48.384Z,3.20
2023-12-20T01:40:20.971Z,3.10
2023-12-20T01:42:49.232Z,2.50
2023-12-20T01:45:18.256Z,3.00
2023-12-20T01:47:46.583Z,2.30
2023-12-20T01:50:17.867Z,2.60
2023-12-20T01:52:46.399Z,2.40
2023-12-20T01:55:16.659Z,3.00
2023-12-20T01:57:50.862Z,2.60
2023-12-20T02:00:23.874Z,2.60
2023-12-20T02:02:52.005Z,2.40
2023-12-20T02:09:07.822Z,2.40
2023-12-20T02:11:42.053Z,2.30
2023-12-20T02:14:10.214Z,2.20
2023-12-20T02:16:39.340Z,2.50
2023-12-20T02:19:11.446Z,2.30
2023-12-20T02:21:42.570Z,2.40
2023-12-20T02:24:12.027Z,2.20
2023-12-20T02:26:40.193Z,2.60
2023-12-20T02:29:08.394Z,2.00
2023-12-20T02:31:36.445Z,1.80
2023-12-20T02:34:04.746Z,2.50
2023-12-20T02:36:35.753Z,2.80
2023-12-20T02:39:04.076Z,2.40
2023-12-20T02:41:34.541Z,2.40
2023-12-20T02:44:05.124Z,2.40
2023-12-20T02:46:33.133Z,2.50
2023-12-20T02:49:01.133Z,1.80
2023-12-20T02:51:30.463Z,2.00
2023-12-20T02:54:00.618Z,1.80
2023-12-20T02:56:28.607Z,2.10
2023-12-20T02:59:02.465Z,1.60
2023-12-20T03:01:31.740Z,1.40
2023-12-20T03:03:59.912Z,1.50
2023-12-20T03:06:33.468Z,1.70
2023-12-20T03:09:01.517Z,1.50
2023-12-20T03:11:30.020Z,2.20
2023-12-20T03:13:58.442Z,2.50
2023-12-20T03:16:27.613Z,1.80
2023-12-20T03:18:58.255Z,2.00
2023-12-20T03:21:26.476Z,1.80
2023-12-20T03:24:01.428Z,2.00
2023-12-20T03:26:31.553Z,2.10
2023-12-20T03:28:59.469Z,2.40
2023-12-20T03:31:27.643Z,2.70
2023-12-20T03:37:24.582Z,1.90
2023-12-20T03:40:09.470Z,2.40
2023-12-20T03:42:37.615Z,2.10
2023-12-20T03:45:05.943Z,2.70
2023-12-20T03:47:34.000Z,2.50
2023-12-20T03:50:02.158Z,2.50
2023-12-20T03:52:32.221Z,2.30
2023-12-20T03:55:00.210Z,2.10
2023-12-20T03:57:28.250Z,2.20
2023-12-20T03:59:56.225Z,2.10
2023-12-20T04:02:26.363Z,2.30
2023-12-20T04:04:54.514Z,2.00
2023-12-20T04:07:22.802Z,2.20
2023-12-20T04:09:53.662Z,2.10
2023-12-20T04:12:21.723Z,2.40
2023-12-20T04:14:52.592Z,2.30
2023-12-20T04:17:25.932Z,2.30
2023-12-20T04:19:54.045Z,2.30
2023-12-20T04:22:22.348Z,2.00
2023-12-20T04:25:13.989Z,2.40
2023-12-20T04:27:54.786Z,2.30
2023-12-20T04:30:49.250Z,1.80
2023-12-20T04:33:17.394Z,2.10
2023-12-20T04:35:47.007Z,1.80
2023-12-20T04:38:17.278Z,2.10
2023-12-20T04:40:45.276Z,1.70
2023-12-20T04:43:13.362Z,1.70
2023-12-20T04:45:44.210Z,2.60
2023-12-20T04:48:12.325Z,2.00
2023-12-20T04:50:40.685Z,2.00
2023-12-20T04:53:10.225Z,1.90
2023-12-20T04:55:38.425Z,2.00
2023-12-20T04:58:06.457Z,1.60
2023-12-20T05:00:37.075Z,2.10
2023-12-20T05:03:10.949Z,2.00
2023-12-20T05:05:41.559Z,3.40
2023-12-20T05:08:09.780Z,2.10
2023-12-20T05:11:38.968Z,2.50
2023-12-20T05:14:21.169Z,3.40
2023-12-20T05:16:56.106Z,2.30
2023-12-20T05:19:27.116Z,3.20
2023-12-20T05:21:56.288Z,1.70
2023-12-20T05:24:28.509Z,2.90
2023-12-20T05:26:57.687Z,2.10
2023-12-20T05:29:27.517Z,2.00
2023-12-20T05:32:00.256Z,2.10
2023-12-20T05:34:29.928Z,1.90
2023-12-20T05:36:58.952Z,1.90
2023-12-20T05:39:27.090Z,1.60
2023-12-20T05:41:55.262Z,1.70
2023-12-20T05:44:23.369Z,2.00
2023-12-20T05:46:51.701Z,1.90
2023-12-20T05:49:25.059Z,2.00
2023-12-20T05:51:53.242Z,2.30
2023-12-20T05:54:22.995Z,2.40
2023-12-20T05:56:51.921Z,1.70
2023-12-20T05:59:25.181Z,1.30
2023-12-20T06:01:53.472Z,2.60
2023-12-20T06:04:23.699Z,2.10
2023-12-20T06:06:52.279Z,1.70
2023-12-20T06:09:20.831Z,1.60
2023-12-20T06:11:48.844Z,2.10
2023-12-20T06:14:16.885Z,1.60
2023-12-20T06:16:50.414Z,1.90
2023-12-20T06:19:18.647Z,1.80
2023-12-20T06:21:46.843Z,2.40
2023-12-20T06:24:15.333Z,3.00
2023-12-20T06:26:46.366Z,2.10
2023-12-20T06:29:14.505Z,2.40
2023-12-20T06:31:42.578Z,3.20
2023-12-20T06:34:11.960Z,2.30
2023-12-20T06:36:40.302Z,2.30
2023-12-20T06:39:10.050Z,2.90
2023-12-20T06:41:42.307Z,2.20
2023-12-20T06:44:10.439Z,2.70
2023-12-20T06:46:38.481Z,2.60
2023-12-20T06:49:07.773Z,2.60
2023-12-20T06:51:38.674Z,2.00
2023-12-20T06:54:06.860Z,2.60
2023-12-20T06:56:38.111Z,4.40
2023-12-20T06:59:11.541Z,3.00
2023-12-20T07:01:39.714Z,2.50
2023-12-20T07:04:09.797Z,2.50
2023-12-20T07:06:37.835Z,2.40
2023-12-20T07:09:06.357Z,3.20
2023-12-20T07:11:37.105Z,2.90
2023-12-20T07:14:07.295Z,2.80
2023-12-20T07:16:36.196Z,2.80
2023-12-20T07:19:04.565Z,3.00
2023-12-20T07:21:32.760Z,3.30
2023-12-20T07:24:03.274Z,3.50
2023-12-20T07:26:31.526Z,3.40
2023-12-20T07:29:01.954Z,3.50
2023-12-20T07:31:30.019Z,4.30
2023-12-20T07:34:00.205Z,4.80
2023-12-20T07:36:28.327Z,5.00
2023-12-20T07:38:59.282Z,6.50
2023-12-20T07:41:29.811Z,7.60
2023-12-20T07:44:00.636Z,20.30
2023-12-20T07:46:29.066Z,7.80
2023-12-20T07:48:57.359Z,10.20
2023-12-20T07:51:25.343Z,6.10
2023-12-20T07:53:54.470Z,6.80
2023-12-20T07:56:22.550Z,7.80
2023-12-20T07:58:53.047Z,8.70
2023-12-20T08:01:23.149Z,9.50
2023-12-20T08:03:53.294Z,11.50
2023-12-20T08:06:22.648Z,9.20
2023-12-20T08:08:58.171Z,9.10
2023-12-20T08:11:30.734Z,7.40
2023-12-20T08:14:06.394Z,8.80
2023-12-20T08:16:36.933Z,8.50
2023-12-20T08:19:08.018Z,9.20
2023-12-20T08:21:38.530Z,9.80
2023-12-20T08:24:09.129Z,11.10
2023-12-20T08:26:37.367Z,13.30
2023-12-20T08:29:08.254Z,11.10
2023-12-20T08:31:41.543Z,9.40
2023-12-20T08:34:18.343Z,8.80
2023-12-20T08:36:46.336Z,10.30
2023-12-20T08:39:18.276Z,6.30
2023-12-20T08:41:48.895Z,6.60
2023-12-20T08:44:17.109Z,6.60
2023-12-20T08:46:45.207Z,7.10
2023-12-20T08:49:13.506Z,7.80
2023-12-20T08:51:42.711Z,9.00
2023-12-20T08:54:14.463Z,8.30
2023-12-20T08:56:45.266Z,8.80
2023-12-20T08:59:13.607Z,9.10
2023-12-20T09:01:46.365Z,9.10
2023-12-20T09:04:14.462Z,10.70
2023-12-20T09:06:48.286Z,10.30
2023-12-20T09:09:16.551Z,17.50
2023-12-20T09:11:47.435Z,10.70
2023-12-20T09:14:21.405Z,10.40
2023-12-20T09:16:52.040Z,10.50
2023-12-20T09:19:21.455Z,9.50
2023-12-20T09:21:49.766Z,8.70
2023-12-20T09:24:17.962Z,9.00
2023-12-20T09:26:48.814Z,10.40
2023-12-20T09:29:17.335Z,9.80
2023-12-20T09:31:45.941Z,9.20
2023-12-20T09:34:16.186Z,10.60
2023-12-20T09:36:50.232Z,11.40
2023-12-20T09:39:21.826Z,13.90
2023-12-20T09:42:08.155Z,14.00
2023-12-20T09:44:44.764Z,14.50
2023-12-20T09:47:22.120Z,10.80
2023-12-20T09:49:56.133Z,12.30
2023-12-20T09:52:25.496Z,14.00
2023-12-20T09:54:56.597Z,13.10
2023-12-20T09:57:24.863Z,12.80
2023-12-20T09:59:52.994Z,12.30
2023-12-20T10:02:26.439Z,10.90
2023-12-20T10:04:58.305Z,11.50
2023-12-20T10:07:26.629Z,12.00
2023-12-20T10:09:57.636Z,11.50
2023-12-20T10:12:28.204Z,11.70
2023-12-20T10:14:59.135Z,10.70
2023-12-20T10:17:30.428Z,11.10
2023-12-20T10:19:59.665Z,11.10
2023-12-20T10:22:28.239Z,10.60
2023-12-20T10:25:01.912Z,8.70
2023-12-20T10:27:31.226Z,9.60
2023-12-20T10:29:59.967Z,9.20
2023-12-20T10:32:29.581Z,9.10
2023-12-20T10:35:02.243Z,9.30
2023-12-20T10:37:33.482Z,6.80
2023-12-20T10:40:04.372Z,6.70
2023-12-20T10:42:37.354Z,7.30
2023-12-20T10:45:05.855Z,6.40
2023-12-20T10:47:34.351Z,5.60
2023-12-20T10:50:06.386Z,6.60
2023-12-20T10:52:35.842Z,7.30
2023-12-20T10:55:03.998Z,7.20
2023-12-20T10:57:32.140Z,8.20
2023-12-20T11:00:05.922Z,9.40
2023-12-20T11:02:33.973Z,9.50
2023-12-20T11:05:12.095Z,9.60
2023-12-20T11:07:44.952Z,10.60
2023-12-20T11:10:20.362Z,8.20
2023-12-20T11:12:50.268Z,7.20
2023-12-20T11:15:18.742Z,9.80
2023-12-20T11:17:52.498Z,9.20
2023-12-20T11:20:24.027Z,9.70
2023-12-20T11:23:01.806Z,8.60
2023-12-20T11:25:46.934Z,7.40
2023-12-20T11:28:14.956Z,7.00
2023-12-20T11:30:44.516Z,9.70
2023-12-20T11:35:47.128Z,10.10
2023-12-20T11:38:15.468Z,10.90
2023-12-20T11:40:44.955Z,14.70
2023-12-20T11:43:13.137Z,14.00
2023-12-20T11:45:51.557Z,14.10
2023-12-20T11:48:19.953Z,13.80
2023-12-20T11:50:48.160Z,10.00
2023-12-20T11:53:20.735Z,10.40
2023-12-20T11:55:49.968Z,10.90
2023-12-20T11:58:19.596Z,11.90
2023-12-20T12:00:53.755Z,10.80
2023-12-20T12:03:25.047Z,11.80
2023-12-20T12:05:53.273Z,11.00
2023-12-20T12:08:24.984Z,10.40
2023-12-20T12:10:58.045Z,11.00
2023-12-20T12:13:28.648Z,10.80
2023-12-20T12:15:57.200Z,12.30
2023-12-20T12:18:29.070Z,14.80
2023-12-20T12:21:10.607Z,9.90
2023-12-20T12:23:47.578Z,11.50
2023-12-20T12:26:15.658Z,11.40
2023-12-20T12:28:49.301Z,13.30
2023-12-20T12:31:17.646Z,11.60
2023-12-20T12:33:47.331Z,16.90
2023-12-20T12:36:19.014Z,18.20
2023-12-20T12:38:47.138Z,20.40
2023-12-20T12:41:16.497Z,17.20
2023-12-20T12:43:44.694Z,15.30
2023-12-20T12:46:14.056Z,14.00
2023-12-20T12:48:44.923Z,15.00
2023-12-20T12:51:54.220Z,13.00
2023-12-20T12:54:58.270Z,12.10
2023-12-20T12:57:37.955Z,14.80
2023-12-20T13:00:11.402Z,12.50
2023-12-20T13:02:43.071Z,12.50
2023-12-20T13:05:14.279Z,11.70
2023-12-20T13:07:42.601Z,11.60
2023-12-20T13:10:12.045Z,13.90
2023-12-20T13:12:40.352Z,15.30
2023-12-20T13:15:15.578Z,15.70
2023-12-20T13:17:47.848Z,17.20
2023-12-20T13:20:19.194Z,17.50
2023-12-20T13:22:49.891Z,16.40
2023-12-20T13:25:21.032Z,15.00
2023-12-20T13:27:54.496Z,15.80
2023-12-20T13:30:22.669Z,15.10
2023-12-20T13:32:50.918Z,15.80
2023-12-20T13:35:21.779Z,16.40
2023-12-20T13:37:52.269Z,19.10
2023-12-20T13:40:45.072Z,20.60
2023-12-20T13:44:21.181Z,20.70
2023-12-20T13:47:02.857Z,19.00
2023-12-20T13:49:33.377Z,19.40
2023-12-20T13:52:01.525Z,19.80
2023-12-20T13:54:29.699Z,19.90
2023-12-20T13:57:09.166Z,24.60
2023-12-20T13:59:46.714Z,22.10
2023-12-20T14:02:14.950Z,19.20
2023-12-20T14:04:44.048Z,34.70
2023-12-20T14:09:47.342Z,24.60
2023-12-20T14:12:16.009Z,19.60
2023-12-20T14:14:46.350Z,29.40
2023-12-20T14:17:16.713Z,26.60
2023-12-20T14:19:46.607Z,23.80
2023-12-20T14:22:18.277Z,21.40
2023-12-20T14:24:47.071Z,22.70
2023-12-20T14:27:15.119Z,22.30
2023-12-20T14:29:46.976Z,21.30
2023-12-20T14:32:16.467Z,21.00
2023-12-20T14:34:44.748Z,24.00
2023-12-20T14:37:14.226Z,22.10
2023-12-20T14:39:42.956Z,36.10
2023-12-20T14:42:15.559Z,28.70
2023-12-20T14:44:46.652Z,48.00
2023-12-20T14:47:16.182Z,36.70
2023-12-20T14:49:44.390Z,36.10
2023-12-20T14:52:12.674Z,39.40
2023-12-20T14:54:44.689Z,71.00
2023-12-20T14:57:12.779Z,43.80
2023-12-20T14:59:44.747Z,34.00
2023-12-20T15:02:13.002Z,60.30
2023-12-20T15:04:42.067Z,41.30
2023-12-20T15:07:10.267Z,43.80
2023-12-20T15:09:42.909Z,32.50
2023-12-20T15:12:16.198Z,28.00
2023-12-20T15:14:49.962Z,26.30
2023-12-20T15:17:19.476Z,30.30
2023-12-20T15:19:47.703Z,33.70
2023-12-20T15:22:21.204Z,64.30
2023-12-20T15:24:49.598Z,93.10
2023-12-20T15:27:25.381Z,50.80
2023-12-20T15:29:54.040Z,29.30
2023-12-20T15:32:24.782Z,25.40
2023-12-20T15:34:56.454Z,23.80
2023-12-20T15:37:28.628Z,25.80
2023-12-20T15:39:56.936Z,21.70
2023-12-20T15:42:25.228Z,22.40
2023-12-20T15:44:53.234Z,24.70
2023-12-20T15:47:24.687Z,24.60
2023-12-20T15:49:52.836Z,25.60
2023-12-20T15:52:22.117Z,27.50
2023-12-20T15:54:50.695Z,27.20
2023-12-20T15:57:20.205Z,25.40
2023-12-20T15:59:52.454Z,26.20
2023-12-20T16:02:20.841Z,25.10
2023-12-20T16:04:51.461Z,26.90
2023-12-20T16:07:22.686Z,55.30
2023-12-20T16:09:51.821Z,47.80
2023-12-20T16:12:22.338Z,34.60
2023-12-20T16:14:52.785Z,32.20
2023-12-20T16:17:23.151Z,27.10
2023-12-20T16:22:23.497Z,28.50
2023-12-20T16:24:53.007Z,24.30
2023-12-20T16:27:21.160Z,23.70
2023-12-20T16:29:56.250Z,25.20
2023-12-20T16:32:24.286Z,25.10
2023-12-20T16:34:54.936Z,25.10
2023-12-20T16:37:42.820Z,26.50
2023-12-20T16:43:17.986Z,24.70
2023-12-20T16:45:46.103Z,23.80
2023-12-20T16:48:19.859Z,23.50
2023-12-20T16:50:47.955Z,22.50
2023-12-20T16:53:16.772Z,21.20
2023-12-20T16:55:57.333Z,22.00
2023-12-20T16:58:44.920Z,22.20
2023-12-20T17:04:14.864Z,20.90
2023-12-20T17:06:46.306Z,27.30
2023-12-20T17:09:14.314Z,32.20
2023-12-20T17:11:44.173Z,30.10
2023-12-20T17:14:14.219Z,26.70
2023-12-20T17:16:42.333Z,25.70
2023-12-20T17:19:10.743Z,22.10
2023-12-20T17:21:39.073Z,21.50
2023-12-20T17:24:10.285Z,22.50
2023-12-20T17:26:39.717Z,22.40
2023-12-20T17:29:07.828Z,23.70
2023-12-20T17:31:37.522Z,25.90
2023-12-20T17:34:10.575Z,22.70
2023-12-20T17:36:41.601Z,23.10
2023-12-20T17:39:09.731Z,24.20
2023-12-20T17:41:40.168Z,24.50
2023-12-20T17:44:08.411Z,23.10
2023-12-20T17:46:39.055Z,23.60
2023-12-20T17:49:10.291Z,22.10
2023-12-20T17:51:39.623Z,22.90
2023-12-20T17:54:11.584Z,34.30
2023-12-20T17:56:39.768Z,33.30
2023-12-20T17:59:07.785Z,35.50
2023-12-20T18:01:38.611Z,37.60
2023-12-20T18:04:09.482Z,41.80
2023-12-20T18:06:37.832Z,42.30
2023-12-20T18:09:08.007Z,43.50
2023-12-20T18:11:36.258Z,47.10
2023-12-20T18:14:12.740Z,48.90
2023-12-20T18:16:41.685Z,46.70
2023-12-20T18:19:12.748Z,46.70
2023-12-20T18:21:45.968Z,46.30
2023-12-20T18:24:19.549Z,43.30
2023-12-20T18:26:52.416Z,42.40
2023-12-20T18:29:20.698Z,44.00
2023-12-20T18:31:48.761Z,40.60
2023-12-20T18:34:16.826Z,40.10
2023-12-20T18:36:49.338Z,38.90
2023-12-20T18:39:17.488Z,35.90
2023-12-20T18:41:49.756Z,36.90
2023-12-20T18:44:18.202Z,36.30
2023-12-20T18:46:49.412Z,31.40
2023-12-20T18:49:18.173Z,32.20
2023-12-20T18:51:51.268Z,29.00
2023-12-20T18:54:19.421Z,29.60
2023-12-20T18:56:49.431Z,29.30
2023-12-20T18:59:23.409Z,28.90
2023-12-20T19:01:54.084Z,29.90
2023-12-20T19:04:22.186Z,29.20
2023-12-20T19:06:50.666Z,29.40
2023-12-20T19:09:20.938Z,27.40
2023-12-20T19:11:49.429Z,27.10
2023-12-20T19:14:17.441Z,26.80
2023-12-20T19:16:49.006Z,26.90
2023-12-20T19:19:17.778Z,25.40
2023-12-20T19:21:45.982Z,26.60
2023-12-20T19:24:16.610Z,28.30
2023-12-20T19:26:45.674Z,27.00
2023-12-20T19:29:13.831Z,27.60
2023-12-20T19:31:41.887Z,27.70
2023-12-20T19:34:10.254Z,28.00
2023-12-20T19:36:38.594Z,27.20
2023-12-20T19:39:06.653Z,25.80
2023-12-20T19:41:34.793Z,26.90
2023-12-20T19:44:03.997Z,27.10
2023-12-20T19:46:35.381Z,27.80
2023-12-20T19:49:05.015Z,27.00
2023-12-20T19:54:36.663Z,29.10
2023-12-20T19:57:19.390Z,29.10
2023-12-20T19:59:50.760Z,29.00
2023-12-20T20:02:19.208Z,28.90
2023-12-20T20:04:49.286Z,27.80
2023-12-20T20:07:24.379Z,28.50
2023-12-20T20:09:55.452Z,27.90
2023-12-20T20:12:25.899Z,27.80
2023-12-20T20:14:54.874Z,26.80
2023-12-20T20:17:23.235Z,27.80
2023-12-20T20:19:55.004Z,27.20
2023-12-20T20:22:26.425Z,28.60
2023-12-20T20:24:54.812Z,27.40
2023-12-20T20:27:23.301Z,26.30
2023-12-20T20:29:51.490Z,30.20
2023-12-20T20:32:19.546Z,29.40
2023-12-20T20:34:50.674Z,28.70
2023-12-20T20:37:23.770Z,30.70
2023-12-20T20:39:51.862Z,27.90
2023-12-20T20:42:20.028Z,31.10
2023-12-20T20:44:50.817Z,35.20
2023-12-20T20:47:19.902Z,33.00
2023-12-20T20:49:48.019Z,30.10
2023-12-20T20:52:22.132Z,34.00
2023-12-20T20:54:51.248Z,33.20
2023-12-20T20:57:19.352Z,30.00
2023-12-20T20:59:48.996Z,30.50
2023-12-20T21:02:17.479Z,33.50
2023-12-20T21:04:50.751Z,36.00
2023-12-20T21:07:19.637Z,37.20
2023-12-20T21:09:49.377Z,38.30
2023-12-20T21:12:17.519Z,30.00
2023-12-20T21:14:49.878Z,37.00
2023-12-20T21:17:18.098Z,37.80
2023-12-20T21:19:46.116Z,33.90
2023-12-20T21:22:14.500Z,36.60
2023-12-20T21:24:45.234Z,37.60
2023-12-20T21:27:13.475Z,41.40
2023-12-20T21:29:42.800Z,39.00
2023-12-20T21:32:10.758Z,38.40
2023-12-20T21:34:38.982Z,37.80
2023-12-20T21:37:07.239Z,37.20
2023-12-20T21:39:35.474Z,34.50
2023-12-20T21:42:06.428Z,33.10
2023-12-20T21:44:36.916Z,34.70
2023-12-20T21:47:05.216Z,31.90
2023-12-20T21:49:33.414Z,34.00
2023-12-20T21:52:01.729Z,33.40
2023-12-20T21:54:29.769Z,33.00
2023-12-20T21:56:57.861Z,32.50
2023-12-20T21:59:28.221Z,32.00
2023-12-20T22:01:59.248Z,30.60
2023-12-20T22:04:28.708Z,33.10
2023-12-20T22:06:56.670Z,32.40
2023-12-20T22:09:25.078Z,31.70
2023-12-20T22:11:53.323Z,31.10
2023-12-20T22:14:21.972Z,28.60
2023-12-20T22:16:52.841Z,28.60
2023-12-20T22:19:26.497Z,26.60
2023-12-20T22:21:56.972Z,27.10
2023-12-20T22:24:25.184Z,25.00
2023-12-20T22:26:54.814Z,26.40
2023-12-20T22:29:26.907Z,31.60
2023-12-20T22:32:00.238Z,28.80
2023-12-20T22:34:31.522Z,29.10
2023-12-20T22:37:02.812Z,28.40
2023-12-20T22:39:30.850Z,24.50
2023-12-20T22:42:04.074Z,21.30
2023-12-20T22:44:36.681Z,23.50
2023-12-20T22:47:11.593Z,22.40
2023-12-20T22:49:39.821Z,22.10
2023-12-20T22:52:10.958Z,23.60
2023-12-20T22:55:09.094Z,23.10
2023-12-20T22:58:11.046Z,22.10
2023-12-20T23:00:39.165Z,23.80
2023-12-20T23:03:10.260Z,23.40
2023-12-20T23:05:38.445Z,24.00
2023-12-20T23:08:08.760Z,25.00
2023-12-20T23:10:36.942Z,23.60
2023-12-20T23:13:05.514Z,25.00
2023-12-20T23:15:33.649Z,24.10
2023-12-20T23:18:01.968Z,23.70
2023-12-20T23:20:32.917Z,23.20
2023-12-20T23:23:03.641Z,24.00
2023-12-20T23:25:35.122Z,23.30
2023-12-20T23:28:06.456Z,21.00
2023-12-20T23:30:38.732Z,21.60
2023-12-20T23:33:07.154Z,21.30
2023-12-20T23:35:37.037Z,26.30
2023-12-20T23:38:05.188Z,35.20
2023-12-20T23:40:33.222Z,31.90
2023-12-20T23:43:01.392Z,23.80
2023-12-20T23:45:33.518Z,23.30
2023-12-20T23:48:04.273Z,21.70
2023-12-20T23:50:32.405Z,25.80
2023-12-20T23:53:00.589Z,25.70
2023-12-20T23:55:31.462Z,25.80
2023-12-20T23:58:04.557Z,24.70
